Time;durP1;ratioP1;P1;durP2;ratioP2;P2;SDS_P1;SDS_P2;PMS_P1;PMS_P2;Temp;Humidity;BMP_temperature;BMP_pressure;BME280_temperature;BME280_humidity;BME280_pressure;Samples;Min_cycle;Max_cycle;Signal;HPM_P1;HPM_P2
2022/06/26 04:01:17;;;;;;;0.70;0.20;;;18.90;91.30;;;;;;5871123;23;89323;-72
2022/06/26 04:03:43;;;;;;;1.88;0.40;;;19.00;91.70;;;;;;4913971;28;87025;-71
2022/06/26 04:06:09;;;;;;;2.65;0.65;;;18.90;92.30;;;;;;4917434;28;87068;-72
2022/06/26 04:08:34;;;;;;;2.28;0.35;;;18.90;92.30;;;;;;4932020;28;86922;-70
2022/06/26 04:11:00;;;;;;;1.40;0.40;;;18.90;93.00;;;;;;4918186;28;89181;-73
2022/06/26 04:13:25;;;;;;;4.43;0.93;;;18.90;93.30;;;;;;4919423;28;87668;-73
2022/06/26 04:15:51;;;;;;;1.20;0.57;;;18.80;94.00;;;;;;4919946;28;86982;-71
2022/06/26 04:18:17;;;;;;;1.33;0.60;;;18.90;94.20;;;;;;4918849;28;87085;-73
2022/06/26 04:20:43;;;;;;;1.30;0.68;;;18.90;94.30;;;;;;4918065;28;88063;-72
2022/06/26 04:23:11;;;;;;;1.95;0.57;;;18.80;94.90;;;;;;4918958;28;87735;-73
2022/06/26 04:25:39;;;;;;;2.55;0.60;;;18.90;94.80;;;;;;4922308;28;87163;-75
2022/06/26 04:28:06;;;;;;;0.88;0.40;;;19.00;94.50;;;;;;4918236;28;86395;-71
2022/06/26 04:30:31;;;;;;;3.63;0.40;;;19.00;94.50;;;;;;4914573;28;87779;-70
2022/06/26 04:32:57;;;;;;;3.75;0.52;;;19.10;94.50;;;;;;4916538;28;87370;-72
2022/06/26 04:35:24;;;;;;;2.70;0.70;;;19.90;93.00;;;;;;4909843;28;87859;-71
2022/06/26 04:37:50;;;;;;;1.02;0.47;;;21.00;90.90;;;;;;4917167;28;87104;-71
2022/06/26 04:40:16;;;;;;;1.50;0.57;;;22.00;86.00;;;;;;4910010;28;88479;-72
2022/06/26 04:42:42;;;;;;;1.65;0.77;;;22.80;79.60;;;;;;4916592;28;88148;-72
2022/06/26 04:45:09;;;;;;;3.35;0.73;;;23.40;77.90;;;;;;4919832;28;86483;-71
2022/06/26 04:47:35;;;;;;;2.80;0.43;;;24.30;75.30;;;;;;4919757;28;87094;-71
2022/06/26 04:50:02;;;;;;;1.52;0.90;;;25.00;70.00;;;;;;4919943;28;88268;-73
2022/06/26 04:52:28;;;;;;;1.90;0.82;;;25.80;68.20;;;;;;4920049;28;86442;-72
2022/06/26 04:54:54;;;;;;;1.95;1.02;;;26.20;64.60;;;;;;4913205;28;86852;-71
2022/06/26 04:57:19;;;;;;;1.70;0.80;;;26.00;64.10;;;;;;4906483;28;87002;-71
2022/06/26 04:59:45;;;;;;;1.73;1.30;;;25.80;66.30;;;;;;4925038;28;89071;-71
2022/06/26 05:02:11;;;;;;;2.40;0.60;;;26.30;64.70;;;;;;4918918;28;88274;-72
2022/06/26 05:04:37;;;;;;;1.35;0.90;;;26.90;63.10;;;;;;4919990;28;86839;-72
2022/06/26 05:07:04;;;;;;;2.53;1.13;;;27.30;61.80;;;;;;4919013;28;87036;-71
2022/06/26 05:09:30;;;;;;;2.13;1.27;;;27.30;61.20;;;;;;4919792;28;87381;-71
2022/06/26 05:11:56;;;;;;;1.83;0.77;;;27.50;60.60;;;;;;4916993;28;87093;-72
2022/06/26 05:14:22;;;;;;;1.85;1.27;;;28.50;58.60;;;;;;4919802;28;86955;-73
2022/06/26 05:16:49;;;;;;;1.38;0.90;;;27.90;58.80;;;;;;4917372;28;86149;-70
2022/06/26 05:19:14;;;;;;;1.77;0.95;;;26.90;60.10;;;;;;4919196;28;87069;-71
2022/06/26 05:21:40;;;;;;;2.33;1.40;;;26.40;62.20;;;;;;4919348;28;87120;-73
2022/06/26 05:24:06;;;;;;;1.85;0.98;;;27.50;60.90;;;;;;4918482;28;88045;-71
2022/06/26 05:26:32;;;;;;;2.03;1.15;;;28.40;57.00;;;;;;4919001;28;87047;-71
2022/06/26 05:28:58;;;;;;;2.85;1.60;;;28.10;57.40;;;;;;4912669;28;87223;-74
2022/06/26 05:31:24;;;;;;;2.53;1.25;;;28.00;57.50;;;;;;4919070;28;86849;-72
2022/06/26 05:33:50;;;;;;;2.90;0.90;;;29.00;55.30;;;;;;4921941;28;87726;-72
2022/06/26 05:36:16;;;;;;;2.75;0.40;;;29.50;54.40;;;;;;4918084;28;87351;-71
2022/06/26 05:38:42;;;;;;;2.08;1.00;;;30.10;53.30;;;;;;4919455;28;87672;-72
2022/06/26 05:41:21;;;;;;;1.92;1.73;;;31.00;51.50;;;;;;4919374;28;86601;-71
2022/06/26 05:43:47;;;;;;;3.17;1.63;;;31.20;51.20;;;;;;4911731;28;87140;-73
2022/06/26 05:46:13;;;;;;;3.42;1.50;;;31.70;49.30;;;;;;4919573;28;87034;-74
2022/06/26 05:48:38;;;;;;;3.90;2.03;;;32.10;48.50;;;;;;4919096;28;88594;-72
2022/06/26 05:51:04;;;;;;;2.38;1.65;;;31.60;49.30;;;;;;4928479;28;88264;-72
2022/06/26 05:53:30;;;;;;;1.58;0.90;;;31.30;49.50;;;;;;4919039;28;87038;-73
2022/06/26 05:55:55;;;;;;;2.70;1.67;;;31.20;49.80;;;;;;4913209;28;87252;-72
2022/06/26 05:58:21;;;;;;;2.58;2.17;;;31.10;50.10;;;;;;4912858;28;89315;-73
2022/06/26 06:00:47;;;;;;;1.15;0.60;;;31.30;50.70;;;;;;4908466;28;87303;-75
2022/06/26 06:03:12;;;;;;;3.38;2.28;;;31.80;49.10;;;;;;4913615;28;87319;-72
2022/06/26 06:05:38;;;;;;;2.67;1.90;;;32.00;49.40;;;;;;4914707;28;86866;-74
2022/06/26 06:08:04;;;;;;;2.95;1.98;;;33.10;48.00;;;;;;4916670;28;87145;-76
2022/06/26 06:10:31;;;;;;;2.53;2.17;;;34.50;45.90;;;;;;4913391;28;87341;-70
2022/06/26 06:12:56;;;;;;;2.47;1.77;;;35.20;44.30;;;;;;4914671;28;87929;-72
2022/06/26 06:15:22;;;;;;;2.50;2.10;;;35.20;43.40;;;;;;4909635;28;87607;-71
2022/06/26 06:17:49;;;;;;;2.38;1.88;;;35.10;44.60;;;;;;4914327;28;87386;-72
2022/06/26 06:20:20;;;;;;;2.55;2.28;;;34.30;43.90;;;;;;4912838;28;87427;-71
2022/06/26 06:22:59;;;;;;;2.85;2.25;;;33.20;46.80;;;;;;4911968;28;87416;-71
2022/06/26 06:25:25;;;;;;;2.00;1.75;;;33.20;47.10;;;;;;4911197;28;86999;-72
2022/06/26 06:27:51;;;;;;;2.83;2.58;;;34.30;45.70;;;;;;4914214;28;87582;-73
2022/06/26 06:30:18;;;;;;;3.00;2.70;;;34.90;44.70;;;;;;4908272;28;86405;-71
2022/06/26 06:32:45;;;;;;;3.83;2.47;;;35.80;43.30;;;;;;4914313;28;87300;-71
2022/06/26 06:35:13;;;;;;;2.58;2.13;;;36.30;42.50;;;;;;4906944;28;87969;-72
2022/06/26 06:37:40;;;;;;;2.30;2.10;;;37.10;41.70;;;;;;4909019;28;88122;-73
2022/06/26 06:40:07;;;;;;;2.55;2.33;;;37.20;41.00;;;;;;4913691;28;88053;-74
2022/06/26 06:42:33;;;;;;;2.50;2.30;;;36.20;43.10;;;;;;4913395;28;87152;-72
2022/06/26 06:44:59;;;;;;;2.92;2.63;;;36.50;41.90;;;;;;4914676;28;87076;-74
2022/06/26 06:47:25;;;;;;;3.53;3.10;;;37.10;41.10;;;;;;4910443;28;88204;-76
2022/06/26 06:49:50;;;;;;;2.30;2.08;;;37.60;40.40;;;;;;4912075;28;87854;-73
2022/06/26 06:52:16;;;;;;;2.42;2.22;;;37.90;40.10;;;;;;4909070;28;86890;-73
2022/06/26 06:54:42;;;;;;;2.40;2.17;;;36.60;40.70;;;;;;4909514;28;86303;-76
2022/06/26 06:57:07;;;;;;;2.72;2.00;;;34.90;43.50;;;;;;4911631;28;88206;-72
2022/06/26 06:59:33;;;;;;;1.98;1.63;;;36.10;43.00;;;;;;4913245;28;87005;-75
2022/06/26 07:01:59;;;;;;;3.80;2.17;;;37.30;40.70;;;;;;4918608;28;87871;-72
2022/06/26 07:04:25;;;;;;;1.73;1.63;;;37.60;40.40;;;;;;4917896;28;86985;-73
2022/06/26 07:06:51;;;;;;;2.70;2.50;;;39.20;38.90;;;;;;4919175;28;87912;-74
2022/06/26 07:09:16;;;;;;;3.00;2.72;;;40.60;37.30;;;;;;4918324;28;86978;-73
2022/06/26 07:11:43;;;;;;;3.22;2.47;;;40.00;37.60;;;;;;4917220;28;87076;-75
2022/06/26 07:14:08;;;;;;;4.07;3.22;;;39.80;38.00;;;;;;4918077;28;87304;-72
2022/06/26 07:16:35;;;;;;;2.53;2.33;;;40.80;36.80;;;;;;4916780;28;87276;-74
2022/06/26 07:19:02;;;;;;;1.52;1.42;;;39.70;38.00;;;;;;4917059;28;87863;-73
2022/06/26 07:21:28;;;;;;;5.10;2.95;;;37.60;40.10;;;;;;4914122;28;87411;-76
2022/06/26 07:23:54;;;;;;;5.15;3.47;;;37.40;40.20;;;;;;4910146;28;87590;-76
2022/06/26 07:26:19;;;;;;;3.20;2.88;;;38.40;39.70;;;;;;4904407;28;89030;-73
2022/06/26 07:28:45;;;;;;;2.97;2.78;;;40.30;37.90;;;;;;4906292;28;87169;-78
2022/06/26 07:31:11;;;;;;;3.78;2.53;;;41.80;35.90;;;;;;4917328;28;87036;-74
2022/06/26 07:36:20;;;;;;;3.42;3.13;;;42.60;35.00;;;;;;4912401;28;87546;-73
2022/06/26 07:38:46;;;;;;;3.75;2.63;;;44.10;33.80;;;;;;4914083;28;87051;-74
2022/06/26 07:41:12;;;;;;;3.53;3.22;;;43.80;33.60;;;;;;4906105;28;87441;-73
2022/06/26 07:43:37;;;;;;;3.35;3.15;;;42.80;34.60;;;;;;4913834;28;86615;-73
2022/06/26 07:46:03;;;;;;;2.42;1.75;;;42.30;35.00;;;;;;4910169;28;89585;-74
2022/06/26 07:48:29;;;;;;;3.25;2.97;;;43.30;34.70;;;;;;4917516;28;87005;-75
2022/06/26 07:50:55;;;;;;;4.13;3.15;;;43.50;34.00;;;;;;4915257;28;88112;-76
2022/06/26 07:53:21;;;;;;;2.22;1.98;;;43.40;34.20;;;;;;4912886;28;87484;-74
2022/06/26 07:55:47;;;;;;;4.38;4.00;;;43.30;33.70;;;;;;4914028;28;87351;-74
2022/06/26 07:58:13;;;;;;;3.92;3.63;;;42.80;34.70;;;;;;4916825;28;87884;-73
2022/06/26 08:00:38;;;;;;;4.80;3.55;;;42.10;35.80;;;;;;4916092;28;87034;-74
2022/06/26 08:03:09;;;;;;;4.70;4.30;;;43.00;35.30;;;;;;4910815;28;87573;-75
2022/06/26 08:05:35;;;;;;;4.90;4.40;;;44.10;33.20;;;;;;4915072;28;88149;-74
2022/06/26 08:08:01;;;;;;;6.82;4.68;;;44.00;33.10;;;;;;4911198;28;87895;-74
2022/06/26 08:10:27;;;;;;;5.13;4.75;;;44.40;34.70;;;;;;4913174;28;87658;-75
2022/06/26 08:12:54;;;;;;;4.28;3.97;;;44.90;32.90;;;;;;4914126;28;87165;-74
2022/06/26 08:15:20;;;;;;;5.50;5.03;;;45.70;31.30;;;;;;4919168;28;88156;-74
2022/06/26 08:17:45;;;;;;;5.97;5.47;;;44.00;33.10;;;;;;4920097;28;87139;-74
2022/06/26 08:20:11;;;;;;;6.03;4.80;;;42.70;35.10;;;;;;4919829;28;86716;-73
2022/06/26 08:22:37;;;;;;;4.82;4.45;;;45.10;33.50;;;;;;4918873;28;87294;-75
2022/06/26 08:25:03;;;;;;;3.00;2.72;;;46.00;30.90;;;;;;4917556;28;87757;-74
2022/06/26 08:27:29;;;;;;;5.18;4.78;;;42.90;33.50;;;;;;4919226;28;87356;-76
2022/06/26 08:29:55;;;;;;;6.18;5.30;;;41.70;35.10;;;;;;4914060;28;87362;-75
2022/06/26 08:32:20;;;;;;;3.85;2.90;;;41.00;35.10;;;;;;4915751;28;86334;-75
2022/06/26 08:34:46;;;;;;;4.95;4.55;;;38.90;38.10;;;;;;4918310;28;87530;-75
2022/06/26 08:37:12;;;;;;;4.70;4.38;;;40.70;37.90;;;;;;4917253;28;87677;-74
2022/06/26 08:39:38;;;;;;;4.10;3.75;;;40.20;35.50;;;;;;4914784;28;88069;-73
2022/06/26 08:42:05;;;;;;;4.63;4.05;;;41.20;34.40;;;;;;4913413;28;87083;-75
2022/06/26 08:44:32;;;;;;;4.68;4.07;;;41.70;35.10;;;;;;4919268;28;87023;-74
2022/06/26 08:46:58;;;;;;;4.22;3.92;;;42.80;34.00;;;;;;4917876;28;87192;-76
2022/06/26 08:49:24;;;;;;;4.60;4.20;;;44.40;32.30;;;;;;4918813;28;86901;-76
2022/06/26 08:51:52;;;;;;;4.60;4.20;;;44.40;31.70;;;;;;4918321;28;88391;-76
2022/06/26 08:54:19;;;;;;;4.80;4.40;;;44.50;31.30;;;;;;4910258;28;87644;-74
2022/06/26 08:56:48;;;;;;;3.22;1.92;;;43.70;32.10;;;;;;4911459;28;86469;-74
2022/06/26 08:59:18;;;;;;;5.75;5.35;;;43.60;32.20;;;;;;4917045;28;87092;-72
2022/06/26 09:01:45;;;;;;;5.43;4.93;;;46.20;30.70;;;;;;4918584;28;87334;-74
2022/06/26 09:04:12;;;;;;;5.13;4.30;;;42.70;34.90;;;;;;4910630;28;88215;-74
2022/06/26 09:06:39;;;;;;;4.97;4.43;;;44.40;32.60;;;;;;4909937;28;87154;-73
2022/06/26 09:09:22;;;;;;;5.40;5.00;;;45.10;32.50;;;;;;4913419;28;87096;-77
2022/06/26 09:11:49;;;;;;;5.03;4.63;;;45.80;31.40;;;;;;4907200;28;88159;-76
2022/06/26 09:14:15;;;;;;;6.72;6.22;;;46.00;31.30;;;;;;4913907;28;87490;-75
2022/06/26 09:16:46;;;;;;;6.13;5.63;;;47.50;31.00;;;;;;4910307;28;87989;-78
2022/06/26 09:19:18;;;;;;;5.95;4.95;;;49.10;29.80;;;;;;4913440;28;88188;-79
2022/06/26 09:21:45;;;;;;;3.33;3.03;;;48.60;29.50;;;;;;4913142;28;86696;-76
2022/06/26 09:24:13;;;;;;;6.65;6.15;;;48.70;29.50;;;;;;4915287;28;87402;-76
2022/06/26 09:26:40;;;;;;;4.97;4.57;;;49.00;29.30;;;;;;4909251;28;87923;-75
2022/06/26 09:29:18;;;;;;;6.93;6.43;;;49.50;29.50;;;;;;4912022;28;88711;-75
2022/06/26 09:31:44;;;;;;;5.07;4.68;;;50.00;29.00;;;;;;4913420;28;87114;-74
2022/06/26 09:34:25;;;;;;;7.28;5.85;;;48.80;28.80;;;;;;4910243;28;88077;-76
2022/06/26 09:36:58;;;;;;;6.63;5.90;;;47.70;30.00;;;;;;4905744;28;87512;-75
2022/06/26 09:39:29;;;;;;;7.18;6.68;;;49.30;29.90;;;;;;4910652;28;87658;-76
2022/06/26 09:41:54;;;;;;;8.00;7.40;;;50.10;31.40;;;;;;4912528;28;87791;-75
2022/06/26 09:44:21;;;;;;;7.90;7.32;;;50.30;29.20;;;;;;4906678;28;90106;-75
2022/06/26 09:46:47;;;;;;;6.90;6.40;;;51.10;29.20;;;;;;4916146;28;86224;-76
2022/06/26 09:49:14;;;;;;;8.35;7.72;;;51.30;28.90;;;;;;4915787;28;87064;-77
2022/06/26 09:51:40;;;;;;;7.53;7.00;;;50.50;29.10;;;;;;4915808;28;87303;-76
2022/06/26 09:54:06;;;;;;;8.88;8.18;;;51.10;29.60;;;;;;4914590;28;88560;-77
2022/06/26 09:56:33;;;;;;;9.57;8.88;;;51.10;29.30;;;;;;4913038;28;87901;-73
2022/06/26 09:58:59;;;;;;;9.07;8.40;;;50.50;29.80;;;;;;4914962;28;87118;-75
2022/06/26 10:07:02;;;;;;;7.93;7.32;;;50.20;29.20;;;;;;4915854;28;87098;-74
2022/06/26 10:09:28;;;;;;;8.43;7.72;;;47.30;30.50;;;;;;4916591;28;87050;-74
2022/06/26 10:11:57;;;;;;;8.18;7.47;;;45.60;31.40;;;;;;4911986;28;86569;-73
2022/06/26 10:14:27;;;;;;;7.30;6.70;;;45.30;31.60;;;;;;4914349;28;90309;-73
2022/06/26 10:17:05;;;;;;;4.80;3.70;;;43.40;34.20;;;;;;4907821;28;86978;-75
2022/06/26 10:20:00;;;;;;;3.83;3.53;;;41.60;36.40;;;;;;4910849;28;87913;-73
2022/06/26 10:22:26;;;;;;;5.55;5.13;;;39.40;38.60;;;;;;4914298;28;87125;-74
2022/06/26 10:24:57;;;;;;;6.90;6.25;;;37.80;41.10;;;;;;4910691;28;87291;-72
2022/06/26 10:27:29;;;;;;;4.35;3.63;;;36.80;42.00;;;;;;4912498;28;87886;-74
2022/06/26 10:30:21;;;;;;;4.32;3.08;;;35.80;41.60;;;;;;4912662;28;87489;-75
2022/06/26 10:33:14;;;;;;;3.25;2.95;;;35.20;46.20;;;;;;4910892;28;87277;-74
2022/06/26 10:35:48;;;;;;;2.33;2.13;;;34.40;46.60;;;;;;4916271;28;87293;-74
2022/06/26 10:38:19;;;;;;;2.53;2.33;;;33.70;49.00;;;;;;4915453;28;87075;-73
2022/06/26 10:43:47;;;;;;;3.00;2.80;;;34.20;47.20;;;;;;4914398;28;87523;-74
2022/06/26 10:46:14;;;;;;;2.45;2.25;;;33.80;48.70;;;;;;4914203;28;88114;-76
2022/06/26 10:48:53;;;;;;;4.95;3.97;;;33.80;49.60;;;;;;4909018;28;87894;-72
2022/06/26 10:51:27;;;;;;;4.47;4.03;;;33.50;46.70;;;;;;4912402;28;87105;-73
2022/06/26 10:53:53;;;;;;;2.17;1.35;;;33.20;47.40;;;;;;4909473;28;87108;-74
2022/06/26 10:56:19;;;;;;;3.10;2.03;;;32.90;48.90;;;;;;4916811;28;87145;-72
2022/06/26 10:58:46;;;;;;;2.72;2.13;;;32.50;48.90;;;;;;4909507;28;87079;-72
2022/06/26 11:01:12;;;;;;;3.08;2.05;;;32.40;48.20;;;;;;4912478;28;87034;-73
2022/06/26 11:03:40;;;;;;;6.35;4.40;;;32.20;49.90;;;;;;4909659;28;86408;-75
2022/06/26 11:06:08;;;;;;;2.05;1.67;;;32.00;53.70;;;;;;4908283;28;88148;-72
2022/06/26 11:08:45;;;;;;;2.17;1.98;;;32.20;52.30;;;;;;4906995;28;87552;-73
2022/06/26 11:11:14;;;;;;;4.45;2.30;;;32.60;52.10;;;;;;4904381;28;88488;-73
2022/06/26 11:13:54;;;;;;;3.97;2.63;;;32.70;51.70;;;;;;4907652;28;87444;-73
2022/06/26 11:16:29;;;;;;;3.90;2.47;;;32.10;50.40;;;;;;4911398;28;87594;-74
2022/06/26 11:18:55;;;;;;;2.13;1.73;;;31.90;51.60;;;;;;4914956;28;87464;-73
2022/06/26 11:21:21;;;;;;;2.10;1.83;;;31.70;50.30;;;;;;4913230;28;87089;-74
2022/06/26 11:23:51;;;;;;;2.22;1.98;;;31.60;54.20;;;;;;4909884;28;87079;-73
2022/06/26 11:26:22;;;;;;;6.72;1.20;;;31.60;52.30;;;;;;4910332;28;87811;-72
2022/06/26 11:28:56;;;;;;;1.77;1.38;;;31.70;53.40;;;;;;4915048;28;86178;-73
2022/06/26 11:31:25;;;;;;;3.58;1.05;;;31.60;53.50;;;;;;4917286;28;88051;-73
2022/06/26 11:33:51;;;;;;;1.63;1.45;;;31.60;54.60;;;;;;4917348;28;86988;-73
2022/06/26 11:36:17;;;;;;;1.73;1.23;;;31.40;56.30;;;;;;4915739;28;88224;-73
2022/06/26 11:38:50;;;;;;;3.05;1.45;;;31.40;54.50;;;;;;4917384;28;88647;-74
2022/06/26 11:41:16;;;;;;;1.58;1.00;;;31.20;53.50;;;;;;4917336;28;87075;-74
2022/06/26 11:44:01;;;;;;;3.25;0.88;;;31.20;54.00;;;;;;4920046;28;86945;-73
2022/06/26 11:46:28;;;;;;;1.30;0.60;;;31.00;52.40;;;;;;4920528;28;87051;-74
2022/06/26 11:48:54;;;;;;;2.10;1.58;;;31.20;54.40;;;;;;4920128;28;86969;-73
2022/06/26 11:51:21;;;;;;;2.00;1.60;;;31.30;54.90;;;;;;4919730;28;87066;-73
2022/06/26 11:53:49;;;;;;;1.65;1.35;;;30.80;55.50;;;;;;4921039;28;86841;-74
2022/06/26 11:56:27;;;;;;;2.40;1.40;;;30.80;54.20;;;;;;4919936;28;86775;-73
2022/06/26 11:58:55;;;;;;;1.88;1.67;;;30.90;55.60;;;;;;4919990;28;87145;-74
2022/06/26 12:01:22;;;;;;;1.48;0.45;;;31.10;54.80;;;;;;4918948;28;88009;-73
2022/06/26 12:03:47;;;;;;;2.70;0.88;;;31.00;54.80;;;;;;4922459;28;87026;-74
2022/06/26 12:06:40;;;;;;;1.55;1.40;;;30.90;53.60;;;;;;4919041;28;87164;-73
2022/06/26 12:09:20;;;;;;;2.05;1.48;;;30.90;55.10;;;;;;4908248;28;88017;-74
2022/06/26 12:11:54;;;;;;;2.08;1.42;;;30.70;55.40;;;;;;4918491;28;86947;-75
2022/06/26 12:14:25;;;;;;;3.40;1.75;;;30.60;57.40;;;;;;4915733;28;86888;-73
2022/06/26 12:16:56;;;;;;;2.33;1.50;;;30.80;57.40;;;;;;4919824;28;87455;-73
2022/06/26 12:19:23;;;;;;;2.92;1.67;;;31.00;58.70;;;;;;4919470;28;86692;-73
2022/06/26 12:21:51;;;;;;;1.35;1.00;;;30.90;56.90;;;;;;4922190;28;87004;-74
2022/06/26 12:24:18;;;;;;;1.75;1.33;;;30.80;56.70;;;;;;4919312;28;87073;-75
2022/06/26 12:26:44;;;;;;;2.83;1.33;;;30.60;57.10;;;;;;4907212;28;88664;-73
2022/06/26 12:29:13;;;;;;;3.08;1.35;;;30.70;55.60;;;;;;4919279;28;87924;-75
2022/06/26 12:31:39;;;;;;;3.13;1.88;;;30.60;56.90;;;;;;4908417;28;87065;-73
2022/06/26 12:34:05;;;;;;;5.43;0.63;;;30.50;55.40;;;;;;4919679;28;86916;-75
2022/06/26 12:36:32;;;;;;;1.52;1.23;;;30.40;55.80;;;;;;4919056;28;87414;-73
2022/06/26 12:38:59;;;;;;;1.48;1.33;;;30.30;57.50;;;;;;4919662;28;87010;-73
2022/06/26 12:41:24;;;;;;;2.08;1.33;;;30.40;56.50;;;;;;4916872;28;87741;-73
2022/06/26 12:43:53;;;;;;;1.63;1.52;;;30.40;58.60;;;;;;4918036;28;86379;-73
2022/06/26 12:46:19;;;;;;;2.30;1.55;;;30.70;55.80;;;;;;4906459;28;87364;-73
2022/06/26 12:48:45;;;;;;;2.05;1.67;;;30.80;55.00;;;;;;4900778;28;86999;-75
2022/06/26 12:51:12;;;;;;;2.03;1.48;;;30.60;56.50;;;;;;4904320;28;88150;-75
2022/06/26 12:53:37;;;;;;;1.58;1.10;;;30.50;55.60;;;;;;4913768;28;86997;-75
2022/06/26 12:56:03;;;;;;;1.70;0.68;;;30.30;56.50;;;;;;4916767;28;87540;-76
2022/06/26 12:58:29;;;;;;;2.33;1.77;;;30.40;58.40;;;;;;4909152;28;87479;-73
2022/06/26 13:00:55;;;;;;;2.75;1.38;;;30.50;55.80;;;;;;4914820;28;87182;-74
2022/06/26 13:03:21;;;;;;;1.75;1.42;;;30.40;56.00;;;;;;4916185;28;87453;-74
2022/06/26 13:05:48;;;;;;;1.40;1.13;;;30.20;54.10;;;;;;4915136;28;87149;-76
2022/06/26 13:08:14;;;;;;;1.23;0.52;;;30.40;57.60;;;;;;4912933;28;87897;-73
2022/06/26 13:10:42;;;;;;;2.10;0.98;;;30.50;55.50;;;;;;4916751;28;87394;-73
2022/06/26 13:13:08;;;;;;;1.17;0.50;;;30.80;56.70;;;;;;4915421;28;87022;-74
2022/06/26 13:15:34;;;;;;;2.33;0.50;;;31.00;57.30;;;;;;4913472;28;88365;-74
2022/06/26 13:18:00;;;;;;;2.60;1.77;;;31.00;57.00;;;;;;4915163;28;88189;-73
2022/06/26 13:20:26;;;;;;;1.92;1.73;;;30.90;55.90;;;;;;4916036;28;87393;-73
2022/06/26 13:22:52;;;;;;;1.75;1.42;;;30.90;57.10;;;;;;4917935;28;87193;-74
2022/06/26 13:25:18;;;;;;;1.80;1.10;;;30.80;55.90;;;;;;4918096;28;87937;-73
2022/06/26 13:27:44;;;;;;;1.83;0.80;;;30.60;57.30;;;;;;4914746;28;87494;-73
2022/06/26 13:30:10;;;;;;;1.48;0.65;;;30.70;58.00;;;;;;4915548;28;87050;-73
2022/06/26 13:32:36;;;;;;;1.70;1.52;;;30.60;54.30;;;;;;4915780;28;86829;-73
2022/06/26 13:35:02;;;;;;;2.55;1.27;;;30.90;55.30;;;;;;4915572;28;87278;-74
2022/06/26 13:37:28;;;;;;;1.48;1.08;;;31.00;53.20;;;;;;4916448;28;86955;-73
2022/06/26 13:39:53;;;;;;;1.38;1.20;;;30.90;52.70;;;;;;4915252;28;88033;-73
2022/06/26 13:42:19;;;;;;;1.35;1.15;;;30.70;54.20;;;;;;4915959;28;87091;-76
2022/06/26 13:44:45;;;;;;;2.78;1.65;;;30.70;55.50;;;;;;4917534;28;88067;-73
2022/06/26 13:47:10;;;;;;;1.92;1.70;;;30.80;55.40;;;;;;4913246;28;87583;-74
2022/06/26 13:49:46;;;;;;;2.00;1.58;;;30.80;56.20;;;;;;4915838;28;87777;-73
2022/06/26 13:52:14;;;;;;;2.03;1.55;;;30.60;54.00;;;;;;4917679;28;87476;-73
2022/06/26 13:54:41;;;;;;;1.85;1.58;;;30.80;54.10;;;;;;4917256;28;87010;-73
2022/06/26 13:57:06;;;;;;;1.70;1.23;;;30.90;54.40;;;;;;4914645;28;87806;-74
2022/06/26 13:59:34;;;;;;;2.65;1.70;;;30.80;53.70;;;;;;4910528;28;87562;-73
2022/06/26 14:02:00;;;;;;;1.60;1.45;;;30.70;55.20;;;;;;4913639;28;87081;-73
2022/06/26 14:04:26;;;;;;;2.00;1.63;;;30.50;54.90;;;;;;4913996;28;88177;-76
2022/06/26 14:06:51;;;;;;;2.13;1.50;;;30.50;54.90;;;;;;4908089;28;87990;-73
2022/06/26 14:09:17;;;;;;;1.60;1.50;;;30.40;56.40;;;;;;4915274;28;87067;-73
2022/06/26 14:11:43;;;;;;;1.92;1.52;;;30.40;57.50;;;;;;4913707;28;89437;-73
2022/06/26 14:14:08;;;;;;;1.95;0.82;;;30.30;57.10;;;;;;4915803;28;87465;-73
2022/06/26 14:16:34;;;;;;;2.13;1.20;;;30.50;57.60;;;;;;4915120;28;87312;-74
2022/06/26 14:19:00;;;;;;;2.28;1.35;;;30.70;56.50;;;;;;4918643;28;87101;-74
2022/06/26 14:21:25;;;;;;;1.80;1.10;;;30.80;55.60;;;;;;4915349;28;86432;-73
2022/06/26 14:26:36;;;;;;;3.50;0.80;;;30.70;56.80;;;;;;4914142;28;87014;-74
2022/06/26 14:29:02;;;;;;;1.73;1.40;;;30.50;57.30;;;;;;4916748;28;88288;-78
2022/06/26 14:31:27;;;;;;;2.13;1.45;;;30.40;56.70;;;;;;4915552;28;87413;-75
2022/06/26 14:33:53;;;;;;;1.25;0.88;;;30.20;58.10;;;;;;4916411;28;87128;-76
2022/06/26 14:36:19;;;;;;;1.60;0.85;;;30.30;58.30;;;;;;4923865;28;87905;-75
2022/06/26 14:38:45;;;;;;;6.68;1.48;;;30.40;56.40;;;;;;4924259;28;87229;-76
2022/06/26 14:41:11;;;;;;;1.83;1.73;;;30.30;58.10;;;;;;4917087;28;86950;-77
2022/06/26 14:43:37;;;;;;;2.35;1.52;;;30.40;56.50;;;;;;4917897;28;87210;-79
2022/06/26 14:46:03;;;;;;;1.92;1.63;;;30.70;56.70;;;;;;4914609;28;87282;-76
2022/06/26 14:48:29;;;;;;;2.85;1.73;;;30.90;56.10;;;;;;4901109;28;87260;-81
2022/06/26 14:50:55;;;;;;;1.73;1.55;;;30.70;53.40;;;;;;4900157;28;87143;-77
2022/06/26 14:53:23;;;;;;;2.45;1.67;;;30.60;54.40;;;;;;4904000;28;88729;-75
2022/06/26 14:55:49;;;;;;;1.00;0.50;;;30.70;54.00;;;;;;4909425;28;87858;-75
2022/06/26 14:58:24;;;;;;;1.58;1.45;;;30.90;55.50;;;;;;4909687;28;87040;-76
2022/06/26 15:00:54;;;;;;;2.80;1.65;;;30.80;54.90;;;;;;4907347;28;86984;-74
2022/06/26 15:03:20;;;;;;;3.05;1.48;;;30.80;57.30;;;;;;4912604;28;88280;-74
2022/06/26 15:05:46;;;;;;;1.60;1.45;;;31.00;53.10;;;;;;4911472;28;87473;-76
2022/06/26 15:08:12;;;;;;;2.63;1.98;;;31.00;52.90;;;;;;4912801;28;87233;-75
2022/06/26 15:10:38;;;;;;;1.63;1.25;;;31.00;54.20;;;;;;4917103;28;86248;-77
2022/06/26 15:13:03;;;;;;;1.95;1.25;;;30.90;51.60;;;;;;4910883;28;87003;-78
2022/06/26 15:15:29;;;;;;;2.75;1.55;;;30.70;51.30;;;;;;4915924;28;86975;-75
2022/06/26 15:17:56;;;;;;;2.35;1.67;;;30.90;53.00;;;;;;4917526;28;87895;-76
2022/06/26 15:20:22;;;;;;;2.75;1.67;;;31.00;52.50;;;;;;4910633;28;87541;-74
2022/06/26 15:22:50;;;;;;;3.13;1.70;;;31.10;51.30;;;;;;4915084;28;88033;-76
2022/06/26 15:25:15;;;;;;;3.50;1.55;;;31.00;50.40;;;;;;4916591;28;87198;-75
2022/06/26 15:27:41;;;;;;;2.33;1.65;;;31.10;49.30;;;;;;4917896;28;87160;-75
2022/06/26 15:30:07;;;;;;;3.40;1.23;;;31.00;52.60;;;;;;4914136;28;87791;-77
2022/06/26 15:32:33;;;;;;;3.15;1.55;;;31.10;52.60;;;;;;4918342;28;88221;-75
2022/06/26 15:34:59;;;;;;;3.30;1.73;;;31.20;52.00;;;;;;4913723;28;87200;-78
2022/06/26 15:37:25;;;;;;;2.70;0.57;;;31.10;52.50;;;;;;4915624;28;87249;-75
2022/06/26 15:39:52;;;;;;;2.88;1.25;;;31.10;51.30;;;;;;4912655;28;87030;-76
2022/06/26 15:42:17;;;;;;;2.65;1.38;;;31.00;50.10;;;;;;4913554;28;88735;-74
2022/06/26 15:44:43;;;;;;;2.25;1.40;;;31.00;50.60;;;;;;4917766;28;87736;-75
2022/06/26 15:47:09;;;;;;;3.33;2.17;;;31.20;51.20;;;;;;4915540;28;87000;-74
2022/06/26 15:49:35;;;;;;;1.63;1.33;;;31.30;50.50;;;;;;4916769;28;87085;-76
2022/06/26 15:52:01;;;;;;;2.30;1.05;;;31.50;50.00;;;;;;4913631;28;88132;-76
2022/06/26 15:54:27;;;;;;;2.63;1.20;;;31.40;49.80;;;;;;4911445;28;87096;-77
2022/06/26 15:56:52;;;;;;;2.03;1.67;;;31.20;50.20;;;;;;4916046;28;87292;-76
2022/06/26 15:59:18;;;;;;;2.67;1.63;;;31.00;50.20;;;;;;4910886;28;86487;-75
2022/06/26 16:01:44;;;;;;;1.95;1.75;;;31.00;51.00;;;;;;4915792;28;87251;-74
2022/06/26 16:04:10;;;;;;;1.70;1.50;;;30.90;51.40;;;;;;4919120;28;87385;-74
2022/06/26 16:06:36;;;;;;;2.40;1.17;;;30.90;50.70;;;;;;4917040;28;87969;-75
2022/06/26 16:09:03;;;;;;;1.83;1.63;;;30.90;52.80;;;;;;4918294;28;89157;-77
2022/06/26 16:11:29;;;;;;;1.73;1.50;;;30.80;51.50;;;;;;4929763;28;88532;-75
2022/06/26 16:13:55;;;;;;;3.03;1.73;;;30.90;50.00;;;;;;4919717;28;87034;-77
2022/06/26 16:16:20;;;;;;;1.63;1.48;;;30.90;50.10;;;;;;4918999;28;87061;-74
2022/06/26 16:18:46;;;;;;;1.73;1.38;;;30.80;50.50;;;;;;4919695;28;87708;-76
2022/06/26 16:21:12;;;;;;;2.03;1.17;;;30.90;50.90;;;;;;4919809;28;87934;-76
2022/06/26 16:26:26;;;;;;;2.08;1.80;;;30.90;52.20;;;;;;4919170;28;87008;-76
2022/06/26 16:29:02;;;;;;;2.63;1.63;;;31.00;51.10;;;;;;4917031;28;87066;-75
2022/06/26 16:31:29;;;;;;;1.52;1.25;;;31.00;52.50;;;;;;4917928;28;88267;-76
2022/06/26 16:33:56;;;;;;;1.60;1.27;;;31.00;50.90;;;;;;4911840;28;88806;-76
2022/06/26 16:36:22;;;;;;;1.48;1.33;;;31.00;52.30;;;;;;4915535;28;87118;-75
2022/06/26 16:38:48;;;;;;;1.73;1.42;;;30.80;51.60;;;;;;4914860;28;86865;-77
2022/06/26 16:41:14;;;;;;;1.67;1.52;;;30.80;52.50;;;;;;4902551;28;88378;-75
2022/06/26 16:43:42;;;;;;;3.75;1.58;;;30.80;53.20;;;;;;4910831;28;88264;-77
2022/06/26 16:46:08;;;;;;;2.25;1.42;;;30.80;53.10;;;;;;4913937;28;86984;-78
2022/06/26 16:48:34;;;;;;;2.30;1.77;;;30.80;53.70;;;;;;4910942;28;86421;-77
2022/06/26 16:51:01;;;;;;;2.08;1.52;;;30.90;52.40;;;;;;4914521;28;87408;-79
2022/06/26 16:53:26;;;;;;;3.45;1.15;;;31.00;52.60;;;;;;4912215;28;87332;-75
2022/06/26 16:55:53;;;;;;;1.88;1.38;;;31.00;52.40;;;;;;4913241;28;88455;-75
2022/06/26 16:58:19;;;;;;;1.65;1.35;;;30.90;52.30;;;;;;4911310;28;87402;-75
2022/06/26 17:00:45;;;;;;;2.13;1.75;;;30.80;52.30;;;;;;4916658;28;87761;-76
2022/06/26 17:03:13;;;;;;;2.15;1.45;;;30.70;52.60;;;;;;4910580;28;87801;-77
2022/06/26 17:05:39;;;;;;;3.30;1.40;;;30.70;53.10;;;;;;4916477;28;87263;-77